createdAt,value
2023-10-17T00:01:35.676Z,78.13
2023-10-17T00:04:25.542Z,77.46
2023-10-17T00:06:55.957Z,77.83
2023-10-17T00:09:25.889Z,77.42
2023-10-17T00:11:55.909Z,77.57
2023-10-17T00:14:51.651Z,78.34
2023-10-17T00:17:19.505Z,77.81
2023-10-17T00:19:50.711Z,77.07
2023-10-17T00:22:25.263Z,77.99
2023-10-17T00:24:55.682Z,77.48
2023-10-17T00:27:24.307Z,78.23
2023-10-17T00:29:52.232Z,77.89
2023-10-17T00:32:19.901Z,77.50
2023-10-17T00:34:47.824Z,78.29
2023-10-17T00:37:15.577Z,78.02
2023-10-17T00:39:43.299Z,78.92
2023-10-17T00:42:11.286Z,79.41
2023-10-17T00:44:39.916Z,79.02
2023-10-17T00:47:20.187Z,78.46
2023-10-17T00:49:50.743Z,78.87
2023-10-17T00:52:33.977Z,78.62
2023-10-17T00:55:02.353Z,79.19
2023-10-17T00:57:31.133Z,79.14
2023-10-17T01:00:12.613Z,78.87
2023-10-17T01:02:46.514Z,78.90
2023-10-17T01:05:14.541Z,78.66
2023-10-17T01:07:42.243Z,79.77
2023-10-17T01:10:12.376Z,78.98
2023-10-17T01:13:00.310Z,78.80
2023-10-17T01:15:30.730Z,80.37
2023-10-17T01:18:05.543Z,79.79
2023-10-17T01:20:35.666Z,79.70
2023-10-17T01:23:05.247Z,79.12
2023-10-17T01:25:36.469Z,78.98
2023-10-17T01:28:07.758Z,79.60
2023-10-17T01:30:35.513Z,79.11
2023-10-17T01:33:04.196Z,79.59
2023-10-17T01:35:31.969Z,80.02
2023-10-17T01:37:59.675Z,79.69
2023-10-17T01:40:28.697Z,78.91
2023-10-17T01:43:01.461Z,79.05
2023-10-17T01:45:31.433Z,78.94
2023-10-17T01:48:00.220Z,79.27
2023-10-17T01:50:29.308Z,79.69
2023-10-17T01:53:01.726Z,79.27
2023-10-17T01:55:29.901Z,79.14
2023-10-17T01:58:01.384Z,79.83
2023-10-17T02:00:31.682Z,80.09
2023-10-17T02:03:00.099Z,80.34
2023-10-17T02:05:28.383Z,79.83
2023-10-17T02:07:56.564Z,79.97
2023-10-17T02:10:26.234Z,80.12
2023-10-17T02:12:54.160Z,79.86
2023-10-17T02:15:23.947Z,80.01
2023-10-17T02:17:53.289Z,80.03
2023-10-17T02:20:22.558Z,80.27
2023-10-17T02:22:53.195Z,80.98
2023-10-17T02:25:23.016Z,81.03
2023-10-17T02:27:50.823Z,81.13
2023-10-17T02:30:18.579Z,80.33
2023-10-17T02:32:53.281Z,80.52
2023-10-17T02:35:29.482Z,80.27
2023-10-17T02:38:00.494Z,80.46
2023-10-17T02:40:28.908Z,80.93
2023-10-17T02:42:56.957Z,80.28
2023-10-17T02:45:27.712Z,80.50
2023-10-17T02:48:20.198Z,80.80
2023-10-17T02:50:59.838Z,80.98
2023-10-17T02:53:32.873Z,80.78
2023-10-17T02:56:19.750Z,80.40
2023-10-17T02:59:08.421Z,80.92
2023-10-17T03:01:40.909Z,80.86
2023-10-17T03:04:10.993Z,80.56
2023-10-17T03:06:40.566Z,80.34
2023-10-17T03:09:25.010Z,80.74
2023-10-17T03:12:08.961Z,80.55
2023-10-17T03:15:02.997Z,80.30
2023-10-17T03:17:30.896Z,81.46
2023-10-17T03:19:58.895Z,80.70
2023-10-17T03:22:28.513Z,80.59
2023-10-17T03:25:03.717Z,80.96
2023-10-17T03:27:38.718Z,81.18
2023-10-17T03:30:12.008Z,80.88
2023-10-17T03:33:05.694Z,80.98
2023-10-17T03:35:52.319Z,80.86
2023-10-17T03:38:24.250Z,80.83
2023-10-17T03:40:55.045Z,80.88
2023-10-17T03:43:23.413Z,81.12
2023-10-17T03:45:54.165Z,81.29
2023-10-17T03:48:22.365Z,81.52
2023-10-17T03:51:00.626Z,81.39
2023-10-17T03:53:31.687Z,81.86
2023-10-17T03:56:03.001Z,82.12
2023-10-17T03:58:32.179Z,82.22
2023-10-17T04:01:02.210Z,81.70
2023-10-17T04:03:32.720Z,82.07
2023-10-17T04:06:08.098Z,81.97
2023-10-17T04:08:42.790Z,81.94
2023-10-17T04:11:19.292Z,82.16
2023-10-17T04:13:50.891Z,82.45
2023-10-17T04:16:35.524Z,82.35
2023-10-17T04:19:09.599Z,82.21
2023-10-17T04:21:39.212Z,82.67
2023-10-17T04:24:08.130Z,82.56
2023-10-17T04:26:36.809Z,82.79
2023-10-17T04:29:18.981Z,82.76
2023-10-17T04:31:48.770Z,82.92
2023-10-17T04:34:16.634Z,82.40
2023-10-17T04:36:45.030Z,82.49
2023-10-17T04:39:12.861Z,82.39
2023-10-17T04:41:52.811Z,82.26
2023-10-17T04:45:02.048Z,82.52
2023-10-17T04:47:30.786Z,82.55
2023-10-17T04:49:58.478Z,82.85
2023-10-17T04:52:42.072Z,82.99
2023-10-17T04:55:20.197Z,83.00
2023-10-17T04:57:54.396Z,82.55
2023-10-17T05:00:49.229Z,82.71
2023-10-17T05:03:25.963Z,83.46
2023-10-17T05:06:12.334Z,83.08
2023-10-17T05:08:58.844Z,82.79
2023-10-17T05:11:45.989Z,83.01
2023-10-17T05:14:52.293Z,83.15
2023-10-17T05:17:39.009Z,83.15
2023-10-17T05:20:25.929Z,82.93
2023-10-17T05:23:12.346Z,83.51
2023-10-17T05:25:58.796Z,83.31
2023-10-17T05:28:51.825Z,83.40
2023-10-17T05:31:48.369Z,83.14
2023-10-17T05:34:34.877Z,82.98
2023-10-17T05:37:21.045Z,82.79
2023-10-17T05:40:07.221Z,82.98
2023-10-17T05:42:53.538Z,82.96
2023-10-17T05:45:39.820Z,82.92
2023-10-17T05:48:26.720Z,83.19
2023-10-17T05:51:15.741Z,83.03
2023-10-17T05:54:03.431Z,83.19
2023-10-17T05:56:51.258Z,83.16
2023-10-17T05:59:37.672Z,83.12
2023-10-17T06:02:23.954Z,83.27
2023-10-17T06:05:10.633Z,83.47
2023-10-17T06:07:56.921Z,83.62
2023-10-17T06:10:43.470Z,83.67
2023-10-17T06:13:29.815Z,84.33
2023-10-17T06:16:16.266Z,83.66
2023-10-17T06:18:50.809Z,84.25
2023-10-17T06:21:36.468Z,84.13
2023-10-17T06:24:08.998Z,84.65
2023-10-17T06:26:48.045Z,84.44
2023-10-17T06:29:21.860Z,84.29
2023-10-17T06:31:51.829Z,84.23
2023-10-17T06:34:21.305Z,84.24
2023-10-17T06:37:00.512Z,84.48
2023-10-17T06:39:38.985Z,84.55
2023-10-17T06:42:16.383Z,84.40
2023-10-17T06:44:53.827Z,84.40
2023-10-17T06:47:41.313Z,84.79
2023-10-17T06:50:15.226Z,85.02
2023-10-17T06:52:53.583Z,85.04
2023-10-17T06:55:40.215Z,84.99
2023-10-17T06:58:10.987Z,84.95
2023-10-17T07:00:53.125Z,85.03
2023-10-17T07:03:27.025Z,84.85
2023-10-17T07:06:05.382Z,85.17
2023-10-17T07:08:37.968Z,84.93
2023-10-17T07:11:18.121Z,84.83
2023-10-17T07:14:08.179Z,84.81
2023-10-17T07:16:47.207Z,84.70
2023-10-17T07:19:24.781Z,84.65
2023-10-17T07:22:00.274Z,84.71
2023-10-17T07:24:35.136Z,84.87
2023-10-17T07:27:20.013Z,84.67
2023-10-17T07:30:00.248Z,84.41
2023-10-17T07:32:34.724Z,84.86
2023-10-17T07:35:06.434Z,84.61
2023-10-17T07:37:49.644Z,84.38
2023-10-17T07:40:20.066Z,84.52
2023-10-17T07:42:47.912Z,84.58
2023-10-17T07:45:16.110Z,84.35
2023-10-17T07:47:45.311Z,84.34
2023-10-17T07:50:15.730Z,84.12
2023-10-17T07:52:51.725Z,84.28
2023-10-17T07:55:36.572Z,84.02
2023-10-17T07:58:08.124Z,83.97
2023-10-17T08:00:36.907Z,83.91
2023-10-17T08:03:16.653Z,83.82
2023-10-17T08:05:47.066Z,83.32
2023-10-17T08:08:15.875Z,83.33
2023-10-17T08:10:50.037Z,83.16
2023-10-17T08:13:20.484Z,83.35
2023-10-17T08:15:53.997Z,83.26
2023-10-17T08:18:29.733Z,83.13
2023-10-17T08:21:03.348Z,82.43
2023-10-17T08:23:31.792Z,82.55
2023-10-17T08:26:01.422Z,82.44
2023-10-17T08:28:47.874Z,82.04
2023-10-17T08:31:20.598Z,82.03
2023-10-17T08:33:57.565Z,82.00
2023-10-17T08:36:30.918Z,81.65
2023-10-17T08:39:00.619Z,81.64
2023-10-17T08:41:28.797Z,81.62
2023-10-17T08:43:56.542Z,81.48
2023-10-17T08:46:24.337Z,81.48
2023-10-17T08:48:57.838Z,81.72
2023-10-17T08:51:29.268Z,81.31
2023-10-17T08:53:58.160Z,79.98
2023-10-17T08:56:30.090Z,79.67
2023-10-17T08:59:04.888Z,79.64
2023-10-17T09:01:33.102Z,79.43
2023-10-17T09:04:04.988Z,78.78
2023-10-17T09:06:38.714Z,79.36
2023-10-17T09:09:21.911Z,78.28
2023-10-17T09:12:20.929Z,76.96
2023-10-17T09:14:53.652Z,77.33
2023-10-17T09:17:32.036Z,77.94
2023-10-17T09:20:12.704Z,77.15
2023-10-17T09:22:45.281Z,76.82
2023-10-17T09:25:24.650Z,75.42
2023-10-17T09:27:54.564Z,74.85
2023-10-17T09:30:25.402Z,75.26
2023-10-17T09:32:54.348Z,74.63
2023-10-17T09:35:23.969Z,73.82
2023-10-17T09:37:53.284Z,73.59
2023-10-17T09:40:31.781Z,73.98
2023-10-17T09:43:01.708Z,73.07
2023-10-17T09:45:36.201Z,73.21
2023-10-17T09:48:09.238Z,72.24
2023-10-17T09:50:39.408Z,71.55
2023-10-17T09:53:16.245Z,70.93
2023-10-17T09:55:51.754Z,71.05
2023-10-17T09:58:26.055Z,70.52
2023-10-17T10:01:02.201Z,70.59
2023-10-17T10:03:31.971Z,69.32
2023-10-17T10:06:23.631Z,70.19
2023-10-17T10:09:14.967Z,69.64
2023-10-17T10:11:56.435Z,69.12
2023-10-17T10:14:34.895Z,70.19
2023-10-17T10:17:06.846Z,69.34
2023-10-17T10:19:45.170Z,68.92
2023-10-17T10:22:17.545Z,66.93
2023-10-17T10:24:48.171Z,67.53
2023-10-17T10:27:17.773Z,67.71
2023-10-17T10:29:52.261Z,67.90
2023-10-17T10:32:35.837Z,67.15
2023-10-17T10:35:06.990Z,67.37
2023-10-17T10:37:52.063Z,67.45
2023-10-17T10:40:27.792Z,66.79
2023-10-17T10:42:59.186Z,66.65
2023-10-17T10:45:32.915Z,66.42
2023-10-17T10:48:01.119Z,66.66
2023-10-17T10:50:31.265Z,66.55
2023-10-17T10:53:02.206Z,65.93
2023-10-17T10:55:32.036Z,65.60
2023-10-17T10:58:01.719Z,65.03
2023-10-17T11:00:29.581Z,65.18
2023-10-17T11:02:59.426Z,64.22
2023-10-17T11:05:27.450Z,64.08
2023-10-17T11:08:02.347Z,63.90
2023-10-17T11:10:33.003Z,63.42
2023-10-17T11:13:01.072Z,64.23
2023-10-17T11:15:29.007Z,63.13
2023-10-17T11:18:08.537Z,62.95
2023-10-17T11:20:36.947Z,62.89
2023-10-17T11:23:09.497Z,63.27
2023-10-17T11:25:38.878Z,62.74
2023-10-17T11:28:10.091Z,62.26
2023-10-17T11:30:44.296Z,61.48
2023-10-17T11:33:15.177Z,61.39
2023-10-17T11:35:53.787Z,60.63
2023-10-17T11:38:44.025Z,59.20
2023-10-17T11:41:17.267Z,59.61
2023-10-17T11:43:55.378Z,60.02
2023-10-17T11:46:34.042Z,60.03
2023-10-17T11:49:22.891Z,59.92
2023-10-17T11:52:05.801Z,60.25
2023-10-17T11:54:36.122Z,59.60
2023-10-17T11:57:16.217Z,59.54
2023-10-17T11:59:55.411Z,58.88
2023-10-17T12:02:23.957Z,58.66
2023-10-17T12:04:51.880Z,57.27
2023-10-17T12:07:21.173Z,57.52
2023-10-17T12:09:49.108Z,56.61
2023-10-17T12:12:20.514Z,56.39
2023-10-17T12:14:49.048Z,56.92
2023-10-17T12:17:20.657Z,56.80
2023-10-17T12:19:49.004Z,57.33
2023-10-17T12:22:16.887Z,57.27
2023-10-17T12:24:46.943Z,56.75
2023-10-17T12:27:14.848Z,56.54
2023-10-17T12:29:43.044Z,56.48
2023-10-17T12:32:13.853Z,56.31
2023-10-17T12:34:41.719Z,56.13
2023-10-17T12:37:14.224Z,56.12
2023-10-17T12:39:44.506Z,55.35
2023-10-17T12:42:13.020Z,55.90
2023-10-17T12:44:41.394Z,56.07
2023-10-17T12:47:09.379Z,56.00
2023-10-17T12:49:39.268Z,56.10
2023-10-17T12:52:07.088Z,55.80
2023-10-17T12:54:35.170Z,55.62
2023-10-17T12:57:08.147Z,55.73
2023-10-17T12:59:38.953Z,56.14
2023-10-17T13:02:06.683Z,55.41
2023-10-17T13:04:34.587Z,54.85
2023-10-17T13:07:03.227Z,54.94
2023-10-17T13:09:35.192Z,54.08
2023-10-17T13:12:03.712Z,54.02
2023-10-17T13:14:31.762Z,54.20
2023-10-17T13:16:59.610Z,54.45
2023-10-17T13:19:30.433Z,53.76
2023-10-17T13:21:58.171Z,52.46
2023-10-17T13:24:28.282Z,53.01
2023-10-17T13:27:02.805Z,53.34
2023-10-17T13:29:38.010Z,53.13
2023-10-17T13:32:08.613Z,52.25
2023-10-17T13:34:39.555Z,52.99
2023-10-17T13:37:08.697Z,52.99
2023-10-17T13:39:38.494Z,53.30
2023-10-17T13:42:06.682Z,53.37
2023-10-17T13:44:35.529Z,53.77
2023-10-17T13:47:03.423Z,53.82
2023-10-17T13:49:31.832Z,54.41
2023-10-17T13:52:00.363Z,54.21
2023-10-17T13:54:36.183Z,54.71
2023-10-17T13:57:11.270Z,54.21
2023-10-17T13:59:48.575Z,54.26
2023-10-17T14:02:20.064Z,54.52
2023-10-17T14:04:48.958Z,54.05
2023-10-17T14:07:19.698Z,54.33
2023-10-17T14:09:47.691Z,54.03
2023-10-17T14:12:15.613Z,54.17
2023-10-17T14:14:43.475Z,54.52
2023-10-17T14:17:11.459Z,54.44
2023-10-17T14:19:46.162Z,54.43
2023-10-17T14:22:14.257Z,54.51
2023-10-17T14:24:51.861Z,55.16
2023-10-17T14:27:22.248Z,55.28
2023-10-17T14:29:54.289Z,55.40
2023-10-17T14:32:23.530Z,55.51
2023-10-17T14:34:52.512Z,56.07
2023-10-17T14:37:21.457Z,55.87
2023-10-17T14:39:49.544Z,56.00
2023-10-17T14:42:19.160Z,56.35
2023-10-17T14:44:51.063Z,56.19
2023-10-17T14:47:19.481Z,56.12
2023-10-17T14:49:49.684Z,56.39
2023-10-17T14:52:22.190Z,56.37
2023-10-17T14:54:51.861Z,56.39
2023-10-17T14:57:20.319Z,56.85
2023-10-17T14:59:48.023Z,56.97
2023-10-17T15:02:16.267Z,56.80
2023-10-17T15:04:44.349Z,57.14
2023-10-17T15:07:13.479Z,57.50
2023-10-17T15:09:41.658Z,57.19
2023-10-17T15:12:10.499Z,57.67
2023-10-17T15:14:38.464Z,57.88
2023-10-17T15:17:06.472Z,57.71
2023-10-17T15:19:34.563Z,57.92
2023-10-17T15:22:02.655Z,58.29
2023-10-17T15:24:31.069Z,58.12
2023-10-17T15:27:00.066Z,58.19
2023-10-17T15:29:28.699Z,58.34
2023-10-17T15:31:57.386Z,58.87
2023-10-17T15:34:25.132Z,58.88
2023-10-17T15:36:53.618Z,58.91
2023-10-17T15:39:29.025Z,59.48
2023-10-17T15:41:57.026Z,59.32
2023-10-17T15:44:25.648Z,59.06
2023-10-17T15:46:54.807Z,59.81
2023-10-17T15:49:23.170Z,60.23
2023-10-17T15:51:51.012Z,60.37
2023-10-17T15:54:18.834Z,60.72
2023-10-17T15:56:46.597Z,60.95
2023-10-17T15:59:14.903Z,60.60
2023-10-17T16:01:43.375Z,61.01
2023-10-17T16:04:12.429Z,61.29
2023-10-17T16:06:40.296Z,61.67
2023-10-17T16:09:10.433Z,61.86
2023-10-17T16:11:38.358Z,61.60
2023-10-17T16:14:06.607Z,61.69
2023-10-17T16:16:36.292Z,61.82
2023-10-17T16:19:05.204Z,63.12
2023-10-17T16:21:33.283Z,63.18
2023-10-17T16:24:01.110Z,63.81
2023-10-17T16:26:28.871Z,64.03
2023-10-17T16:28:58.645Z,64.04
2023-10-17T16:31:26.922Z,63.73
2023-10-17T16:33:55.485Z,63.45
2023-10-17T16:36:23.306Z,63.24
2023-10-17T16:38:51.025Z,64.58
2023-10-17T16:41:19.119Z,63.93
2023-10-17T16:43:46.844Z,64.10
2023-10-17T16:46:14.975Z,65.85
2023-10-17T16:48:43.062Z,65.86
2023-10-17T16:51:11.344Z,65.55
2023-10-17T16:53:39.938Z,65.82
2023-10-17T16:56:08.042Z,66.22
2023-10-17T16:58:39.328Z,66.37
2023-10-17T17:01:08.350Z,66.09
2023-10-17T17:03:37.650Z,66.07
2023-10-17T17:06:07.175Z,66.43
2023-10-17T17:08:35.848Z,67.06
2023-10-17T17:11:07.607Z,66.86
2023-10-17T17:13:35.997Z,66.54
2023-10-17T17:16:04.279Z,66.18
2023-10-17T17:21:08.732Z,67.53
2023-10-17T17:23:36.399Z,67.73
2023-10-17T17:26:09.292Z,67.46
2023-10-17T17:28:37.259Z,68.42
2023-10-17T17:31:07.076Z,68.55
2023-10-17T17:33:35.058Z,68.34
2023-10-17T17:36:05.162Z,68.50
2023-10-17T17:38:34.642Z,68.78
2023-10-17T17:41:02.734Z,68.12
2023-10-17T17:43:32.166Z,67.84
2023-10-17T17:45:59.989Z,69.86
2023-10-17T17:48:28.021Z,68.03
2023-10-17T17:50:57.680Z,67.82
2023-10-17T17:53:26.868Z,68.34
2023-10-17T17:55:54.532Z,68.87
2023-10-17T17:58:22.192Z,69.32
2023-10-17T18:00:53.382Z,69.78
2023-10-17T18:03:21.302Z,69.52
2023-10-17T18:05:49.244Z,70.59
2023-10-17T18:08:17.966Z,71.56
2023-10-17T18:10:46.741Z,71.03
2023-10-17T18:13:14.436Z,70.57
2023-10-17T18:15:42.172Z,71.69
2023-10-17T18:18:11.782Z,70.58
2023-10-17T18:20:39.567Z,70.43
2023-10-17T18:23:07.440Z,69.83
2023-10-17T18:25:38.757Z,70.44
2023-10-17T18:28:06.486Z,70.84
2023-10-17T18:30:34.166Z,71.15
2023-10-17T18:33:01.942Z,69.91
2023-10-17T18:35:29.899Z,70.38
2023-10-17T18:37:58.035Z,69.96
2023-10-17T18:40:25.835Z,70.52
2023-10-17T18:42:54.906Z,70.49
2023-10-17T18:45:22.708Z,71.49
2023-10-17T18:47:51.157Z,71.07
2023-10-17T18:50:18.896Z,72.35
2023-10-17T18:52:46.666Z,70.62
2023-10-17T18:55:14.565Z,70.65
2023-10-17T18:57:43.291Z,71.97
2023-10-17T19:00:21.016Z,71.69
2023-10-17T19:02:50.482Z,71.79
2023-10-17T19:05:18.541Z,71.70
2023-10-17T19:07:49.415Z,71.66
2023-10-17T19:10:19.310Z,72.20
2023-10-17T19:12:52.940Z,72.28
2023-10-17T19:15:22.825Z,72.70
2023-10-17T19:17:53.022Z,71.77
2023-10-17T19:20:22.077Z,72.28
2023-10-17T19:22:50.143Z,72.23
2023-10-17T19:25:18.047Z,72.53
2023-10-17T19:27:46.238Z,72.49
2023-10-17T19:30:14.637Z,73.66
2023-10-17T19:32:42.657Z,73.81
2023-10-17T19:35:12.418Z,74.29
2023-10-17T19:37:40.549Z,74.16
2023-10-17T19:40:10.092Z,73.65
2023-10-17T19:42:38.069Z,74.63
2023-10-17T19:45:07.035Z,73.88
2023-10-17T19:47:36.253Z,74.52
2023-10-17T19:50:05.526Z,73.35
2023-10-17T19:52:35.173Z,73.84
2023-10-17T19:55:03.780Z,74.08
2023-10-17T19:57:31.530Z,73.78
2023-10-17T19:59:59.352Z,73.77
2023-10-17T20:02:29.893Z,74.63
2023-10-17T20:04:58.072Z,74.11
2023-10-17T20:07:25.818Z,74.25
2023-10-17T20:09:53.734Z,74.43
2023-10-17T20:12:21.511Z,72.92
2023-10-17T20:14:49.257Z,74.13
2023-10-17T20:17:17.258Z,74.82
2023-10-17T20:19:45.011Z,75.10
2023-10-17T20:22:12.696Z,74.46
2023-10-17T20:24:40.487Z,74.20
2023-10-17T20:27:08.587Z,73.58
2023-10-17T20:29:36.504Z,73.94
2023-10-17T20:32:07.789Z,75.03
2023-10-17T20:34:35.609Z,74.46
2023-10-17T20:37:05.170Z,73.69
2023-10-17T20:39:36.853Z,74.11
2023-10-17T20:42:04.890Z,74.35
2023-10-17T20:44:32.705Z,74.83
2023-10-17T20:47:00.621Z,75.18
2023-10-17T20:49:28.933Z,74.35
2023-10-17T20:51:57.168Z,74.19
2023-10-17T20:54:25.417Z,74.89
2023-10-17T20:56:53.340Z,74.30
2023-10-17T20:59:21.625Z,74.02
2023-10-17T21:01:49.375Z,73.66
2023-10-17T21:04:19.089Z,75.18
2023-10-17T21:06:47.370Z,74.69
2023-10-17T21:09:16.010Z,75.23
2023-10-17T21:11:45.481Z,75.53
2023-10-17T21:14:16.112Z,74.68
2023-10-17T21:16:44.498Z,74.33
2023-10-17T21:19:12.414Z,75.56
2023-10-17T21:21:40.485Z,74.95
2023-10-17T21:24:10.411Z,74.53
2023-10-17T21:26:40.668Z,73.84
2023-10-17T21:29:10.932Z,75.01
2023-10-17T21:31:39.481Z,75.42
2023-10-17T21:34:09.397Z,75.19
2023-10-17T21:36:37.269Z,76.44
2023-10-17T21:39:07.837Z,75.67
2023-10-17T21:41:35.657Z,75.77
2023-10-17T21:44:03.412Z,75.85
2023-10-17T21:46:31.396Z,76.07
2023-10-17T21:48:59.239Z,76.21
2023-10-17T21:51:27.126Z,75.85
2023-10-17T21:53:55.347Z,75.50
2023-10-17T21:56:23.036Z,76.57
2023-10-17T21:58:51.136Z,76.60
2023-10-17T22:01:23.262Z,75.85
2023-10-17T22:03:51.518Z,75.91
2023-10-17T22:06:21.569Z,76.44
2023-10-17T22:08:49.884Z,75.67
2023-10-17T22:11:17.841Z,76.93
2023-10-17T22:13:52.940Z,76.82
2023-10-17T22:16:21.947Z,75.30
2023-10-17T22:18:50.348Z,77.07
2023-10-17T22:21:21.622Z,77.37
2023-10-17T22:23:49.901Z,77.19
2023-10-17T22:26:17.766Z,77.18
2023-10-17T22:28:47.151Z,76.58
2023-10-17T22:31:15.322Z,76.21
2023-10-17T22:33:43.260Z,77.55
2023-10-17T22:36:13.041Z,75.84
2023-10-17T22:38:42.049Z,75.55
2023-10-17T22:41:11.349Z,77.44
2023-10-17T22:43:39.216Z,76.23
2023-10-17T22:46:09.423Z,77.38
2023-10-17T22:48:38.498Z,76.08
2023-10-17T22:51:06.574Z,77.47
2023-10-17T22:53:35.072Z,76.44
2023-10-17T22:56:04.293Z,77.83
2023-10-17T22:58:32.732Z,77.12
2023-10-17T23:01:00.529Z,78.04
2023-10-17T23:03:28.418Z,77.19
2023-10-17T23:05:56.700Z,77.57
2023-10-17T23:08:25.666Z,76.57
2023-10-17T23:10:53.632Z,77.58
2023-10-17T23:13:21.283Z,77.32
2023-10-17T23:15:49.000Z,77.93
2023-10-17T23:18:16.822Z,77.47
2023-10-17T23:20:45.569Z,77.76
2023-10-17T23:23:14.364Z,78.28
2023-10-17T23:25:42.643Z,77.79
2023-10-17T23:28:12.411Z,78.16
2023-10-17T23:30:41.507Z,77.92
2023-10-17T23:33:10.095Z,78.13
2023-10-17T23:35:38.513Z,78.46
2023-10-17T23:38:06.536Z,77.20
2023-10-17T23:40:34.228Z,78.09
2023-10-17T23:43:02.225Z,78.22
2023-10-17T23:45:29.970Z,78.66
2023-10-17T23:47:59.143Z,78.74
2023-10-17T23:50:27.069Z,77.49
2023-10-17T23:52:54.883Z,78.50
2023-10-17T23:55:23.315Z,77.69
2023-10-17T23:57:51.908Z,77.26
